Kezdőlap
METAR-TAF:

METAR-TAF

Repülőterek :

Shawbury, Anglia

földrajzi szélesség: 52-48N, földrajzi hosszúság: 002-40W, magasság: 76 m

Jelenlegi meteorológiai megfigyelések

A jelentés 32 perccel ezelõtt készült, 15:50 UTC
Nyugati szél 11 kt
Hőmérséklet 10°C
Páratartalom 82%
Légköri nyomás 1000 hPa
Látótávolság 10 km, vagy több
Kevés felhő 1800 lábon
Szórványos felhőzet 3500 lábon

METAR: EGOS 061550Z 28011KT 9999 FEW018 SCT035 10/07 Q1000 NOSIG RMK BLU BLU

Idő: 16:22 (16:22 UTC)

Előrejelzés

A jelentés 2 órával és 25 perccel ezelõtt készült, 13:57 UTC
Az előrejelzés 06-én 15 óra UTC és 06-én 18 óra UTC között érvényes
Nyugati szél 12 kt széllökések: 22 kt
Látótávolság 10 km, vagy több
Szakadozott felhőzet 3000 lábon
06-én 15 óra UTC és 06-én 17 óra UTC között ideiglenes
Látótávolság: 6000 m
Szakadozott felhőzet 1800 lábon
záporok

TAF: EGOS 061357Z 0615/0618 26012G22KT 9999 BKN030 TEMPO 0615/0617 6000 SHRA BKN018

Meteorológiai megfigyelések és előrejelzések több, mint 4000 repülőtéren (METAR és TAF jelentéseket).

A térképen piros és sárga pontok jelzik az elérhető meteorológiai állomásokat.

Mozgassa az egeret a pont fölött, hogy megjelenjen az állomás neve.

Azután kattintson az időjárási megfigyelések és előrejelzések megtekintéséhez.

A térkép megváltoztatása: kattintson a fekete keresztel jelölt zöld gombra ráközelítéshez, a vonallal jelölt zöld gombra távolításhoz, vagy a zöld nyilakra a szomszédos térképek eléréséhez.


METAR-TAF: